createdAt,value
2019-02-19T00:01:25.749Z,98549.83
2019-02-19T00:03:54.057Z,98548.95
2019-02-19T00:06:22.800Z,98550.06
2019-02-19T00:08:51.111Z,98541.77
2019-02-19T00:11:19.409Z,98543.38
2019-02-19T00:13:47.729Z,98547.38
2019-02-19T00:16:16.108Z,98547.77
2019-02-19T00:18:44.707Z,98546.60
2019-02-19T00:21:13.081Z,98534.47
2019-02-19T00:23:41.386Z,98539.98
2019-02-19T00:26:17.220Z,98539.00
2019-02-19T00:28:45.525Z,98527.56
2019-02-19T00:31:13.909Z,98530.52
2019-02-19T00:33:42.212Z,98531.23
2019-02-19T00:36:10.620Z,98529.64
2019-02-19T00:38:38.924Z,98534.95
2019-02-19T00:41:07.596Z,98536.20
2019-02-19T00:43:36.299Z,98538.13
2019-02-19T00:46:05.104Z,98534.56
2019-02-19T00:48:33.514Z,98536.11
2019-02-19T00:51:01.820Z,98543.64
2019-02-19T00:53:30.129Z,98551.27
2019-02-19T00:55:58.449Z,98553.90
2019-02-19T00:58:26.747Z,98553.39
2019-02-19T01:00:55.077Z,98556.50
2019-02-19T01:03:23.545Z,98563.84
2019-02-19T01:05:51.866Z,98557.52
2019-02-19T01:08:20.233Z,98567.84
2019-02-19T01:10:48.534Z,98562.88
2019-02-19T01:13:16.857Z,98558.79
2019-02-19T01:15:45.177Z,98558.39
2019-02-19T01:18:13.495Z,98559.59
2019-02-19T01:20:41.799Z,98550.42
2019-02-19T01:23:10.132Z,98556.66
2019-02-19T01:25:38.438Z,98561.08
2019-02-19T01:28:06.740Z,98557.41
2019-02-19T01:30:35.463Z,98551.68
2019-02-19T01:33:03.767Z,98548.66
2019-02-19T01:35:32.101Z,98551.89
2019-02-19T01:38:00.407Z,98547.63
2019-02-19T01:40:28.708Z,98546.66
2019-02-19T01:42:57.098Z,98539.39
2019-02-19T01:45:33.713Z,98545.64
2019-02-19T01:47:55.464Z,98542.77
2019-02-19T01:50:24.156Z,98548.02
2019-02-19T01:52:52.461Z,98548.56
2019-02-19T01:55:21.117Z,98545.78
2019-02-19T01:57:49.412Z,98549.01
2019-02-19T02:00:18.187Z,98548.95
2019-02-19T02:02:46.495Z,98548.60
2019-02-19T02:05:14.792Z,98541.69
2019-02-19T02:07:43.427Z,98550.75
2019-02-19T02:10:11.730Z,98554.14
2019-02-19T02:12:40.037Z,98552.09
2019-02-19T02:15:08.534Z,98554.87
2019-02-19T02:17:37.165Z,98550.01
2019-02-19T02:20:07.433Z,98553.69
2019-02-19T02:22:35.810Z,98553.69
2019-02-19T02:25:04.187Z,98542.70
2019-02-19T02:27:32.582Z,98548.84
2019-02-19T02:30:00.899Z,98550.50
2019-02-19T02:32:29.206Z,98551.10
2019-02-19T02:34:57.507Z,98551.47
2019-02-19T02:37:25.835Z,98550.14
2019-02-19T02:39:54.139Z,98540.91
2019-02-19T02:42:22.440Z,98545.91
2019-02-19T02:44:50.763Z,98540.30
2019-02-19T02:47:19.061Z,98545.09
2019-02-19T02:49:47.367Z,98538.27
2019-02-19T02:52:15.701Z,98552.89
2019-02-19T02:54:44.010Z,98543.13
2019-02-19T02:57:12.309Z,98543.42
2019-02-19T02:59:40.654Z,98549.39
2019-02-19T03:02:09.096Z,98554.94
2019-02-19T03:04:37.399Z,98563.78
2019-02-19T03:07:07.351Z,98562.31
2019-02-19T03:09:35.653Z,98565.52
2019-02-19T03:12:04.043Z,98564.66
2019-02-19T03:14:32.349Z,98571.66
2019-02-19T03:17:00.685Z,98575.47
2019-02-19T03:19:28.996Z,98577.78
2019-02-19T03:21:59.335Z,98580.86
2019-02-19T03:24:27.353Z,98579.51
2019-02-19T03:26:55.658Z,98579.51
2019-02-19T03:29:23.998Z,98590.11
2019-02-19T03:31:52.284Z,98592.22
2019-02-19T03:34:20.593Z,98594.86
2019-02-19T03:36:48.918Z,98595.97
2019-02-19T03:39:17.223Z,98593.92
2019-02-19T03:41:46.134Z,98594.68
2019-02-19T03:44:14.501Z,98596.05
2019-02-19T03:46:43.105Z,98594.86
2019-02-19T03:49:11.429Z,98598.03
2019-02-19T03:51:39.740Z,98606.74
2019-02-19T03:54:08.069Z,98612.86
2019-02-19T03:56:36.848Z,98613.34
2019-02-19T03:59:05.496Z,98608.50
2019-02-19T04:01:33.845Z,98613.84
2019-02-19T04:04:02.186Z,98620.44
2019-02-19T04:06:32.413Z,98617.33
2019-02-19T04:09:00.869Z,98619.33
2019-02-19T04:11:29.179Z,98623.19
2019-02-19T04:13:57.490Z,98629.37
2019-02-19T04:16:25.799Z,98632.39
2019-02-19T04:18:54.210Z,98628.25
2019-02-19T04:21:22.800Z,98629.37
2019-02-19T04:23:51.106Z,98629.48
2019-02-19T04:26:19.426Z,98626.58
2019-02-19T04:28:47.731Z,98625.86
2019-02-19T04:31:16.055Z,98632.33
2019-02-19T04:33:44.369Z,98631.99
2019-02-19T04:36:12.704Z,98619.06
2019-02-19T04:38:41.003Z,98614.77
2019-02-19T04:41:09.314Z,98620.89
2019-02-19T04:43:37.641Z,98633.53
2019-02-19T04:46:05.939Z,98620.77
2019-02-19T04:48:34.276Z,98633.84
2019-02-19T04:51:02.582Z,98631.02
2019-02-19T04:53:30.872Z,98632.80
2019-02-19T04:55:59.529Z,98627.59
2019-02-19T04:58:27.829Z,98630.51
2019-02-19T05:00:56.149Z,98625.95
2019-02-19T05:03:24.456Z,98627.98
2019-02-19T05:05:52.762Z,98630.38
2019-02-19T05:08:21.086Z,98621.25
2019-02-19T05:10:49.464Z,98628.58
2019-02-19T05:13:17.787Z,98625.06
2019-02-19T05:15:46.087Z,98626.41
2019-02-19T05:18:14.400Z,98639.64
2019-02-19T05:20:42.782Z,98636.21
2019-02-19T05:23:11.373Z,98644.95
2019-02-19T05:25:39.698Z,98640.03
2019-02-19T05:28:08.014Z,98643.80
2019-02-19T05:30:36.358Z,98647.57
2019-02-19T05:33:04.740Z,98649.30
2019-02-19T05:35:33.333Z,98646.27
2019-02-19T05:38:01.923Z,98651.34
2019-02-19T05:40:30.229Z,98652.02
2019-02-19T05:42:58.550Z,98656.17
2019-02-19T05:45:27.177Z,98659.22
2019-02-19T05:47:55.787Z,98657.36
2019-02-19T05:50:24.098Z,98658.80
2019-02-19T05:52:52.395Z,98655.21
2019-02-19T05:55:20.720Z,98661.75
2019-02-19T05:57:49.026Z,98654.35
2019-02-19T06:00:17.437Z,98665.25
2019-02-19T06:02:45.752Z,98673.08
2019-02-19T06:05:14.424Z,98669.02
2019-02-19T06:07:43.117Z,98677.76
2019-02-19T06:10:12.812Z,98671.34
2019-02-19T06:12:41.219Z,98676.84
2019-02-19T06:15:11.673Z,98676.52
2019-02-19T06:17:39.963Z,98677.89
2019-02-19T06:20:09.032Z,98675.90
2019-02-19T06:22:37.722Z,98687.12
2019-02-19T06:25:08.349Z,98677.42
2019-02-19T06:27:36.812Z,98680.91
2019-02-19T06:30:11.145Z,98689.55
2019-02-19T06:32:39.466Z,98695.14
2019-02-19T06:35:08.825Z,98703.41
2019-02-19T06:37:37.153Z,98700.20
2019-02-19T06:40:08.566Z,98708.70
2019-02-19T06:42:36.863Z,98706.13
2019-02-19T06:45:05.856Z,98714.94
2019-02-19T06:47:34.160Z,98718.23
2019-02-19T06:50:02.533Z,98727.74
2019-02-19T06:52:30.842Z,98726.56
2019-02-19T06:54:59.177Z,98726.67
2019-02-19T06:57:27.846Z,98726.55
2019-02-19T06:59:56.155Z,98731.09
2019-02-19T07:02:26.119Z,98728.83
2019-02-19T07:04:55.302Z,98734.43
2019-02-19T07:07:23.624Z,98738.78
2019-02-19T07:09:52.000Z,98742.54
2019-02-19T07:12:20.392Z,98748.51
2019-02-19T07:14:48.709Z,98747.59
2019-02-19T07:17:17.056Z,98743.93
2019-02-19T07:19:45.369Z,98741.64
2019-02-19T07:22:13.753Z,98743.02
2019-02-19T07:24:42.085Z,98747.33
2019-02-19T07:27:10.467Z,98754.17
2019-02-19T07:29:38.788Z,98751.69
2019-02-19T07:32:07.093Z,98757.48
2019-02-19T07:34:35.415Z,98756.30
2019-02-19T07:37:03.744Z,98752.78
2019-02-19T07:39:32.040Z,98756.15
2019-02-19T07:42:00.373Z,98749.82
2019-02-19T07:44:28.689Z,98757.22
2019-02-19T07:46:57.001Z,98758.53
2019-02-19T07:49:25.329Z,98757.81
2019-02-19T07:51:53.638Z,98762.44
2019-02-19T07:54:21.982Z,98771.55
2019-02-19T07:56:50.646Z,98773.17
2019-02-19T07:59:18.959Z,98778.34
2019-02-19T08:01:47.331Z,98777.31
2019-02-19T08:04:15.681Z,98778.28
2019-02-19T08:06:44.029Z,98778.46
2019-02-19T08:09:12.718Z,98781.05
2019-02-19T08:11:41.089Z,98785.09
2019-02-19T08:14:09.418Z,98782.84
2019-02-19T08:16:37.721Z,98786.02
2019-02-19T08:19:06.133Z,98781.28
2019-02-19T08:21:34.424Z,98784.44
2019-02-19T08:24:02.738Z,98789.09
2019-02-19T08:26:31.538Z,98789.50
2019-02-19T08:29:07.099Z,98785.95
2019-02-19T08:31:29.903Z,98785.68
2019-02-19T08:33:58.207Z,98787.58
2019-02-19T08:36:26.515Z,98780.03
2019-02-19T08:38:54.834Z,98786.63
2019-02-19T08:41:23.144Z,98788.55
2019-02-19T08:43:51.484Z,98793.35
2019-02-19T08:46:19.789Z,98795.75
2019-02-19T08:48:48.090Z,98802.66
2019-02-19T08:51:16.423Z,98795.19
2019-02-19T08:53:44.730Z,98798.48
2019-02-19T08:56:13.074Z,98785.77
2019-02-19T08:58:41.376Z,98791.80
2019-02-19T09:01:10.005Z,98790.55
2019-02-19T09:03:38.307Z,98788.45
2019-02-19T09:06:06.612Z,98802.63
2019-02-19T09:08:34.935Z,98803.21
2019-02-19T09:11:03.529Z,98804.30
2019-02-19T09:13:31.849Z,98799.70
2019-02-19T09:16:00.418Z,98802.19
2019-02-19T09:18:28.746Z,98803.64
2019-02-19T09:20:57.372Z,98800.30
2019-02-19T09:23:26.608Z,98796.95
2019-02-19T09:25:54.950Z,98785.78
2019-02-19T09:28:24.081Z,98796.80
2019-02-19T09:30:52.737Z,98802.07
2019-02-19T09:33:21.120Z,98799.88
2019-02-19T09:35:49.428Z,98791.14
2019-02-19T09:38:18.084Z,98778.30
2019-02-19T09:40:46.391Z,98790.41
2019-02-19T09:43:14.790Z,98794.95
2019-02-19T09:45:43.086Z,98794.75
2019-02-19T09:48:11.713Z,98794.34
2019-02-19T09:50:40.038Z,98788.08
2019-02-19T09:53:08.349Z,98792.01
2019-02-19T09:55:36.682Z,98795.41
2019-02-19T09:58:05.151Z,98796.53
2019-02-19T10:00:34.137Z,98795.86
2019-02-19T10:03:02.447Z,98795.30
2019-02-19T10:05:31.664Z,98794.59
2019-02-19T10:07:59.986Z,98790.00
2019-02-19T10:10:28.291Z,98794.72
2019-02-19T10:12:56.629Z,98798.47
2019-02-19T10:15:24.934Z,98791.73
2019-02-19T10:17:53.241Z,98793.79
2019-02-19T10:20:21.569Z,98790.55
2019-02-19T10:22:50.897Z,98791.59
2019-02-19T10:25:19.589Z,98789.02
2019-02-19T10:27:47.891Z,98786.30
2019-02-19T10:30:18.347Z,98786.52
2019-02-19T10:32:46.703Z,98785.09
2019-02-19T10:35:15.048Z,98787.27
2019-02-19T10:37:43.376Z,98789.43
2019-02-19T10:40:18.938Z,98781.19
2019-02-19T10:42:47.241Z,98780.42
2019-02-19T10:45:26.803Z,98773.23
2019-02-19T10:47:55.111Z,98764.18
2019-02-19T10:50:23.446Z,98764.18
2019-02-19T10:52:52.176Z,98771.91
2019-02-19T10:55:20.537Z,98763.55
2019-02-19T10:57:48.856Z,98756.61
2019-02-19T11:00:20.066Z,98758.91
2019-02-19T11:02:48.542Z,98746.17
2019-02-19T11:05:17.355Z,98742.53
2019-02-19T11:07:45.666Z,98743.31
2019-02-19T11:10:14.659Z,98734.64
2019-02-19T11:12:43.417Z,98731.13
2019-02-19T11:15:13.178Z,98743.16
2019-02-19T11:17:41.575Z,98734.67
2019-02-19T11:20:12.320Z,98727.89
2019-02-19T11:22:40.689Z,98714.67
2019-02-19T11:25:11.531Z,98718.78
2019-02-19T11:27:39.923Z,98711.38
2019-02-19T11:30:20.440Z,98698.42
2019-02-19T11:32:49.156Z,98710.33
2019-02-19T11:35:17.464Z,98703.02
2019-02-19T11:37:45.969Z,98697.41
2019-02-19T11:40:14.861Z,98698.02
2019-02-19T11:42:43.181Z,98703.63
2019-02-19T11:45:15.842Z,98691.31
2019-02-19T11:47:44.156Z,98683.79
2019-02-19T11:50:13.776Z,98680.66
2019-02-19T11:52:42.163Z,98689.25
2019-02-19T11:55:15.806Z,98676.06
2019-02-19T11:57:44.729Z,98676.63
2019-02-19T12:00:34.207Z,98676.80
2019-02-19T12:03:02.550Z,98672.89
2019-02-19T12:05:30.856Z,98677.83
2019-02-19T12:07:59.169Z,98668.94
2019-02-19T12:10:27.493Z,98661.20
2019-02-19T12:12:55.792Z,98661.17
2019-02-19T12:15:24.119Z,98651.86
2019-02-19T12:17:52.424Z,98654.62
2019-02-19T12:20:20.829Z,98648.48
2019-02-19T12:22:49.530Z,98646.66
2019-02-19T12:25:18.214Z,98646.06
2019-02-19T12:27:46.541Z,98648.03
2019-02-19T12:30:19.569Z,98631.84
2019-02-19T12:32:49.286Z,98631.39
2019-02-19T12:35:17.756Z,98629.56
2019-02-19T12:37:46.083Z,98622.08
2019-02-19T12:40:14.760Z,98625.56
2019-02-19T12:42:43.116Z,98623.84
2019-02-19T12:45:12.684Z,98621.18
2019-02-19T12:47:41.316Z,98611.51
2019-02-19T12:50:12.174Z,98606.81
2019-02-19T12:52:40.480Z,98606.72
2019-02-19T12:55:10.157Z,98605.52
2019-02-19T12:57:38.547Z,98609.84
2019-02-19T13:00:10.597Z,98596.43
2019-02-19T13:02:39.390Z,98606.84
2019-02-19T13:05:09.839Z,98606.14
2019-02-19T13:07:38.177Z,98603.33
2019-02-19T13:10:09.336Z,98605.42
2019-02-19T13:12:37.644Z,98611.09
2019-02-19T13:15:12.070Z,98604.47
2019-02-19T13:17:40.440Z,98588.84
2019-02-19T13:20:11.953Z,98602.30
2019-02-19T13:22:40.343Z,98596.41
2019-02-19T13:25:10.689Z,98594.45
2019-02-19T13:27:39.076Z,98587.41
2019-02-19T13:30:12.963Z,98592.38
2019-02-19T13:32:41.367Z,98589.48
2019-02-19T13:35:11.920Z,98594.55
2019-02-19T13:37:40.227Z,98590.77
2019-02-19T13:40:11.380Z,98588.12
2019-02-19T13:42:39.757Z,98585.45
2019-02-19T13:45:11.014Z,98585.56
2019-02-19T13:47:39.528Z,98579.91
2019-02-19T13:50:11.115Z,98579.36
2019-02-19T13:52:41.057Z,98582.97
2019-02-19T13:55:11.079Z,98585.02
2019-02-19T13:57:39.533Z,98580.67
2019-02-19T14:00:11.223Z,98584.73
2019-02-19T14:02:39.553Z,98571.23
2019-02-19T14:05:08.973Z,98579.34
2019-02-19T14:07:37.361Z,98579.12
2019-02-19T14:10:10.785Z,98583.41
2019-02-19T14:12:39.087Z,98577.50
2019-02-19T14:15:11.891Z,98580.81
2019-02-19T14:17:40.206Z,98584.15
2019-02-19T14:20:10.337Z,98577.66
2019-02-19T14:22:49.657Z,98573.76
2019-02-19T14:25:19.628Z,98572.25
2019-02-19T14:27:49.580Z,98573.46
2019-02-19T14:30:26.069Z,98571.79
2019-02-19T14:33:07.679Z,98578.21
2019-02-19T14:35:43.201Z,98575.06
2019-02-19T14:38:16.096Z,98582.20
2019-02-19T14:40:58.105Z,98572.02
2019-02-19T14:43:43.825Z,98579.88
2019-02-19T14:46:22.561Z,98566.16
2019-02-19T14:48:52.497Z,98568.56
2019-02-19T14:51:34.499Z,98565.51
2019-02-19T14:54:13.354Z,98559.77
2019-02-19T14:56:52.140Z,98560.94
2019-02-19T14:59:31.090Z,98555.17
2019-02-19T15:02:17.017Z,98544.03
2019-02-19T15:04:58.898Z,98552.92
2019-02-19T15:07:31.592Z,98547.32
2019-02-19T15:10:16.198Z,98548.62
2019-02-19T15:13:04.143Z,98545.39
2019-02-19T15:15:46.369Z,98552.83
2019-02-19T15:18:34.088Z,98545.27
2019-02-19T15:21:20.129Z,98556.11
2019-02-19T15:23:53.063Z,98545.86
2019-02-19T15:29:29.994Z,98566.61
2019-02-19T15:31:59.934Z,98563.14
2019-02-19T15:34:36.004Z,98551.66
2019-02-19T15:37:08.403Z,98558.44
2019-02-19T15:39:38.354Z,98554.70
2019-02-19T15:42:24.804Z,98550.03
2019-02-19T15:44:54.769Z,98550.03
2019-02-19T15:47:30.332Z,98545.06
2019-02-19T15:50:06.084Z,98545.57
2019-02-19T15:52:36.100Z,98543.91
2019-02-19T15:55:12.873Z,98550.12
2019-02-19T15:57:45.488Z,98555.52
2019-02-19T16:00:21.236Z,98549.58
2019-02-19T16:02:51.494Z,98549.01
2019-02-19T16:05:37.897Z,98547.02
2019-02-19T16:08:13.856Z,98541.02
2019-02-19T16:10:52.827Z,98551.53
2019-02-19T16:13:23.110Z,98551.87
2019-02-19T16:16:07.887Z,98552.70
2019-02-19T16:18:40.867Z,98551.05
2019-02-19T16:21:10.855Z,98552.97
2019-02-19T16:23:46.890Z,98552.09
2019-02-19T16:26:18.745Z,98546.19
2019-02-19T16:28:52.008Z,98546.30
2019-02-19T16:31:30.882Z,98544.44
2019-02-19T16:34:00.849Z,98544.56
2019-02-19T16:36:33.612Z,98542.60
2019-02-19T16:39:09.327Z,98539.13
2019-02-19T16:41:45.341Z,98546.19
2019-02-19T16:44:31.552Z,98544.75
2019-02-19T16:47:07.516Z,98539.20
2019-02-19T16:50:07.725Z,98540.25
2019-02-19T16:52:39.801Z,98541.13
2019-02-19T16:55:13.079Z,98540.88
2019-02-19T16:57:45.584Z,98541.73
2019-02-19T17:00:21.721Z,98554.25
2019-02-19T17:02:57.383Z,98553.95
2019-02-19T17:05:30.381Z,98553.95
2019-02-19T17:08:12.397Z,98552.67
2019-02-19T17:10:57.378Z,98555.58
2019-02-19T17:13:39.380Z,98555.73
2019-02-19T17:16:25.803Z,98551.89
2019-02-19T17:18:58.495Z,98563.33
2019-02-19T17:21:28.449Z,98558.83
2019-02-19T17:24:04.391Z,98555.91
2019-02-19T17:26:43.222Z,98556.78
2019-02-19T17:29:16.126Z,98561.39
2019-02-19T17:31:46.082Z,98561.69
2019-02-19T17:34:18.848Z,98558.22
2019-02-19T17:36:48.863Z,98550.95
2019-02-19T17:39:18.820Z,98555.06
2019-02-19T17:41:51.838Z,98545.31
2019-02-19T17:44:38.108Z,98549.34
2019-02-19T17:47:23.353Z,98551.72
2019-02-19T17:49:53.423Z,98554.33
2019-02-19T17:52:39.612Z,98554.61
2019-02-19T17:55:26.212Z,98549.35
2019-02-19T17:58:02.066Z,98555.36
2019-02-19T18:00:35.279Z,98555.23
2019-02-19T18:03:20.529Z,98565.88
2019-02-19T18:06:07.123Z,98568.77
2019-02-19T18:08:39.690Z,98563.42
2019-02-19T18:11:26.111Z,98560.31
2019-02-19T18:14:11.934Z,98559.19
2019-02-19T18:16:41.958Z,98559.02
2019-02-19T18:19:10.336Z,98569.83
2019-02-19T18:21:38.638Z,98559.48
2019-02-19T18:24:06.962Z,98561.03
2019-02-19T18:26:35.296Z,98550.69
2019-02-19T18:29:03.637Z,98545.84
2019-02-19T18:31:31.933Z,98545.84
2019-02-19T18:34:00.259Z,98557.89
2019-02-19T18:36:28.560Z,98551.62
2019-02-19T18:38:56.919Z,98552.55
2019-02-19T18:41:25.546Z,98555.72
2019-02-19T18:43:53.891Z,98562.28
2019-02-19T18:46:22.244Z,98556.88
2019-02-19T18:48:50.557Z,98557.91
2019-02-19T18:51:18.959Z,98561.44
2019-02-19T18:53:47.431Z,98567.35
2019-02-19T18:56:15.929Z,98564.59
2019-02-19T18:58:44.239Z,98562.22
2019-02-19T19:01:12.703Z,98568.86
2019-02-19T19:03:40.973Z,98555.53
2019-02-19T19:06:09.289Z,98566.74
2019-02-19T19:08:37.615Z,98560.21
2019-02-19T19:11:05.944Z,98561.27
2019-02-19T19:13:34.602Z,98562.06
2019-02-19T19:16:02.904Z,98559.97
2019-02-19T19:18:31.225Z,98559.13
2019-02-19T19:21:07.644Z,98563.53
2019-02-19T19:23:29.605Z,98566.90
2019-02-19T19:25:57.929Z,98570.20
2019-02-19T19:28:26.624Z,98576.36
2019-02-19T19:30:55.031Z,98574.79
2019-02-19T19:33:23.345Z,98575.61
2019-02-19T19:35:51.650Z,98576.03
2019-02-19T19:38:20.053Z,98573.74
2019-02-19T19:40:48.379Z,98574.66
2019-02-19T19:43:16.779Z,98582.16
2019-02-19T19:45:45.086Z,98580.75
2019-02-19T19:48:13.427Z,98577.11
2019-02-19T19:50:41.809Z,98581.64
2019-02-19T19:53:10.122Z,98583.73
2019-02-19T19:55:38.462Z,98590.41
2019-02-19T19:58:06.758Z,98588.36
2019-02-19T20:00:35.093Z,98589.48
2019-02-19T20:03:03.537Z,98586.80
2019-02-19T20:05:31.869Z,98597.84
2019-02-19T20:08:00.209Z,98600.38
2019-02-19T20:10:28.557Z,98600.38
2019-02-19T20:12:56.869Z,98603.11
2019-02-19T20:15:25.243Z,98603.67
2019-02-19T20:17:53.567Z,98605.72
2019-02-19T20:20:21.879Z,98600.12
2019-02-19T20:22:50.214Z,98610.98
2019-02-19T20:25:18.525Z,98611.67
2019-02-19T20:27:46.846Z,98622.47
2019-02-19T20:30:16.394Z,98613.67
2019-02-19T20:32:44.703Z,98612.16
2019-02-19T20:35:13.319Z,98617.39
2019-02-19T20:37:41.646Z,98623.77
2019-02-19T20:40:12.873Z,98620.27
2019-02-19T20:42:41.191Z,98620.20
2019-02-19T20:45:13.709Z,98619.98
2019-02-19T20:47:42.094Z,98624.28
2019-02-19T20:50:11.741Z,98624.98
2019-02-19T20:52:40.146Z,98620.39
2019-02-19T20:55:10.586Z,98623.94
2019-02-19T20:57:38.964Z,98628.27
2019-02-19T21:00:16.524Z,98632.77
2019-02-19T21:02:45.001Z,98634.60
2019-02-19T21:05:13.403Z,98640.23
2019-02-19T21:07:41.711Z,98647.30
2019-02-19T21:10:18.477Z,98648.52
2019-02-19T21:12:47.126Z,98647.92
2019-02-19T21:15:15.570Z,98646.88
2019-02-19T21:17:43.966Z,98649.12
2019-02-19T21:20:13.033Z,98638.92
2019-02-19T21:22:41.421Z,98648.70
2019-02-19T21:25:11.164Z,98652.03
2019-02-19T21:27:39.554Z,98654.18
2019-02-19T21:30:11.103Z,98656.84
2019-02-19T21:32:39.449Z,98658.15
2019-02-19T21:35:09.012Z,98660.77
2019-02-19T21:37:37.911Z,98660.40
2019-02-19T21:40:11.574Z,98660.97
2019-02-19T21:42:40.100Z,98660.70
2019-02-19T21:45:10.784Z,98667.81
2019-02-19T21:47:39.114Z,98664.19
2019-02-19T21:50:15.391Z,98669.63
2019-02-19T21:52:43.265Z,98671.17
2019-02-19T21:55:12.970Z,98669.47
2019-02-19T21:57:41.341Z,98673.00
2019-02-19T22:00:20.527Z,98666.14
2019-02-19T22:02:49.310Z,98668.16
2019-02-19T22:05:17.612Z,98676.41
2019-02-19T22:07:45.930Z,98674.61
2019-02-19T22:10:14.773Z,98674.61
2019-02-19T22:12:43.118Z,98673.47
2019-02-19T22:15:13.353Z,98675.69
2019-02-19T22:17:41.719Z,98678.21
2019-02-19T22:20:14.897Z,98675.59
2019-02-19T22:22:43.201Z,98680.18
2019-02-19T22:25:11.525Z,98677.86
2019-02-19T22:27:39.843Z,98684.86
2019-02-19T22:30:09.600Z,98684.14
2019-02-19T22:32:37.980Z,98684.45
2019-02-19T22:35:06.969Z,98690.37
2019-02-19T22:37:35.729Z,98689.52
2019-02-19T22:40:05.967Z,98693.23
2019-02-19T22:42:34.287Z,98698.54
2019-02-19T22:45:02.590Z,98684.26
2019-02-19T22:47:30.920Z,98693.16
2019-02-19T22:50:00.194Z,98696.73
2019-02-19T22:52:28.581Z,98700.66
2019-02-19T22:54:58.914Z,98711.13
2019-02-19T22:57:27.221Z,98709.66
2019-02-19T22:59:55.545Z,98724.13
2019-02-19T23:02:24.356Z,98720.06
2019-02-19T23:04:53.045Z,98716.34
2019-02-19T23:07:21.737Z,98716.34
2019-02-19T23:09:50.509Z,98721.52
2019-02-19T23:12:18.852Z,98733.60
2019-02-19T23:14:47.150Z,98728.43
2019-02-19T23:17:15.520Z,98730.58
2019-02-19T23:19:43.844Z,98736.20
2019-02-19T23:22:21.185Z,98736.20
2019-02-19T23:24:42.631Z,98734.80
2019-02-19T23:27:10.950Z,98738.61
2019-02-19T23:29:39.242Z,98735.69
2019-02-19T23:32:07.911Z,98732.82
2019-02-19T23:34:36.215Z,98728.16
2019-02-19T23:37:05.515Z,98729.86
2019-02-19T23:39:43.229Z,98736.05
2019-02-19T23:42:04.208Z,98739.31
2019-02-19T23:44:32.500Z,98734.45
2019-02-19T23:47:01.168Z,98735.50
2019-02-19T23:49:29.487Z,98730.73
2019-02-19T23:51:57.789Z,98737.41
2019-02-19T23:54:26.117Z,98735.02
2019-02-19T23:56:54.414Z,98741.38
2019-02-19T23:59:22.752Z,98743.97
